DEZYZ EDWW-LOWZ
Flight info
| Callsign | DEZYZ |
|---|---|
| Flight time | N/A |
| Altitude | 10000 |
| Route | DCT |
| Aircraft | DA40/L-SBDGRY/L |
Departure
| Time | N/A |
|---|---|
| Airport | EDWW |
Arrival
| Time | 2026-04-27 20:00 |
|---|---|
| Airport | Zell am See Airfield (LOWZ) |
| Time | Latitude | Longitude | Altitude | Speed | Heading |
|---|---|---|---|---|---|
| 2026-04-27 19:21 | 47.82515 | 11.70393 | 2375 ft | 0 kts | 201° |
| 2026-04-27 19:28 | 47.82502 | 11.70391 | 2375 ft | 3 kts | 131° |
| 2026-04-27 19:29 | 47.82493 | 11.70429 | 2375 ft | 4 kts | 109° |
| 2026-04-27 19:29 | 47.82483 | 11.70448 | 2375 ft | 4 kts | 179° |
| 2026-04-27 19:29 | 47.82440 | 11.70425 | 2375 ft | 10 kts | 202° |
| 2026-04-27 19:29 | 47.82381 | 11.70386 | 2374 ft | 5 kts | 196° |
| 2026-04-27 19:30 | 47.82319 | 11.70357 | 2374 ft | 14 kts | 205° |
| 2026-04-27 19:30 | 47.82254 | 11.70310 | 2374 ft | 6 kts | 207° |
| 2026-04-27 19:30 | 47.82229 | 11.70293 | 2375 ft | 4 kts | 226° |
| 2026-04-27 19:30 | 47.82224 | 11.70295 | 2375 ft | 5 kts | 43° |
| 2026-04-27 19:31 | 47.82239 | 11.70304 | 2374 ft | 0 kts | 19° |
| 2026-04-27 19:32 | 47.82245 | 11.70308 | 2374 ft | 5 kts | 19° |
| 2026-04-27 19:32 | 47.82392 | 11.70392 | 2375 ft | 43 kts | 21° |
| 2026-04-27 19:32 | 47.82766 | 11.70622 | 2448 ft | 63 kts | 15° |
| 2026-04-27 19:32 | 47.83161 | 11.70877 | 2635 ft | 63 kts | 16° |
| 2026-04-27 19:33 | 47.83561 | 11.71165 | 2816 ft | 65 kts | 21° |
| 2026-04-27 19:33 | 47.83669 | 11.71328 | 2850 ft | 73 kts | 49° |
| 2026-04-27 19:33 | 47.83298 | 11.72208 | 3083 ft | 90 kts | 168° |
| 2026-04-27 19:33 | 47.82674 | 11.72287 | 3252 ft | 93 kts | 187° |
| 2026-04-27 19:34 | 47.82009 | 11.72225 | 3408 ft | 99 kts | 186° |
| 2026-04-27 19:34 | 47.81314 | 11.72176 | 3605 ft | 100 kts | 186° |
| 2026-04-27 19:34 | 47.80616 | 11.72140 | 3763 ft | 103 kts | 184° |
| 2026-04-27 19:34 | 47.79863 | 11.72180 | 3916 ft | 112 kts | 181° |
| 2026-04-27 19:35 | 47.79059 | 11.72212 | 4029 ft | 122 kts | 182° |
| 2026-04-27 19:35 | 47.78196 | 11.72229 | 4168 ft | 123 kts | 182° |
| 2026-04-27 19:35 | 47.77327 | 11.72243 | 4291 ft | 126 kts | 182° |
| 2026-04-27 19:35 | 47.76453 | 11.72256 | 4419 ft | 126 kts | 182° |
| 2026-04-27 19:36 | 47.75568 | 11.72270 | 4549 ft | 128 kts | 182° |
| 2026-04-27 19:36 | 47.74678 | 11.72284 | 4702 ft | 128 kts | 183° |
| 2026-04-27 19:36 | 47.73790 | 11.72305 | 4824 ft | 128 kts | 182° |
| 2026-04-27 19:36 | 47.72891 | 11.72326 | 4952 ft | 130 kts | 183° |
| 2026-04-27 19:37 | 47.71989 | 11.72348 | 5101 ft | 129 kts | 182° |
| 2026-04-27 19:37 | 47.71084 | 11.72371 | 5239 ft | 130 kts | 182° |
| 2026-04-27 19:37 | 47.70182 | 11.72387 | 5409 ft | 129 kts | 182° |
| 2026-04-27 19:37 | 47.69294 | 11.72569 | 5567 ft | 131 kts | 154° |
| 2026-04-27 19:38 | 47.68633 | 11.73428 | 5786 ft | 128 kts | 125° |
| 2026-04-27 19:38 | 47.68071 | 11.74460 | 6000 ft | 129 kts | 123° |
| 2026-04-27 19:38 | 47.67498 | 11.75496 | 6105 ft | 130 kts | 123° |
| 2026-04-27 19:38 | 47.66911 | 11.76524 | 6239 ft | 131 kts | 123° |
| 2026-04-27 19:39 | 47.66325 | 11.77557 | 6468 ft | 130 kts | 124° |
| 2026-04-27 19:39 | 47.65756 | 11.78591 | 6644 ft | 129 kts | 123° |
| 2026-04-27 19:39 | 47.65196 | 11.79627 | 6831 ft | 129 kts | 123° |
| 2026-04-27 19:39 | 47.64630 | 11.80670 | 7005 ft | 130 kts | 123° |
| 2026-04-27 19:40 | 47.64062 | 11.81725 | 7211 ft | 131 kts | 123° |
| 2026-04-27 19:40 | 47.63501 | 11.82790 | 7422 ft | 131 kts | 123° |
| 2026-04-27 19:40 | 47.62947 | 11.83850 | 7420 ft | 133 kts | 123° |
| 2026-04-27 19:40 | 47.62369 | 11.84925 | 7499 ft | 133 kts | 123° |
| 2026-04-27 19:41 | 47.61778 | 11.85991 | 7696 ft | 134 kts | 124° |
| 2026-04-27 19:41 | 47.61174 | 11.87086 | 7752 ft | 143 kts | 124° |
| 2026-04-27 19:41 | 47.60522 | 11.88277 | 7748 ft | 153 kts | 124° |
| 2026-04-27 19:41 | 47.59842 | 11.89520 | 7753 ft | 158 kts | 124° |
| 2026-04-27 19:42 | 47.59144 | 11.90795 | 7741 ft | 159 kts | 124° |
| 2026-04-27 19:42 | 47.58453 | 11.92071 | 7752 ft | 160 kts | 124° |
| 2026-04-27 19:42 | 47.57749 | 11.93371 | 7754 ft | 164 kts | 124° |
| 2026-04-27 19:42 | 47.57046 | 11.94706 | 7738 ft | 162 kts | 124° |
| 2026-04-27 19:43 | 47.56371 | 11.95997 | 7732 ft | 155 kts | 124° |
| 2026-04-27 19:43 | 47.55723 | 11.97204 | 7763 ft | 149 kts | 124° |
| 2026-04-27 19:43 | 47.55073 | 11.98392 | 7745 ft | 148 kts | 124° |
| 2026-04-27 19:43 | 47.54411 | 11.99577 | 7754 ft | 151 kts | 124° |
| 2026-04-27 19:44 | 47.53729 | 12.00804 | 7754 ft | 157 kts | 124° |
| 2026-04-27 19:44 | 47.53034 | 12.02052 | 7750 ft | 154 kts | 124° |
| 2026-04-27 19:44 | 47.52383 | 12.03174 | 7758 ft | 129 kts | 123° |
| 2026-04-27 19:44 | 47.51772 | 12.04215 | 7761 ft | 141 kts | 123° |
| 2026-04-27 19:45 | 47.51106 | 12.05361 | 7753 ft | 151 kts | 124° |
| 2026-04-27 19:45 | 47.50416 | 12.06563 | 7753 ft | 155 kts | 124° |
| 2026-04-27 19:45 | 47.49712 | 12.07788 | 7754 ft | 158 kts | 124° |
| 2026-04-27 19:45 | 47.48996 | 12.09032 | 7755 ft | 160 kts | 124° |
| 2026-04-27 19:46 | 47.48272 | 12.10295 | 7758 ft | 162 kts | 124° |
| 2026-04-27 19:46 | 47.47544 | 12.11582 | 7755 ft | 164 kts | 124° |
| 2026-04-27 19:46 | 47.46815 | 12.12880 | 7756 ft | 165 kts | 124° |
| 2026-04-27 19:46 | 47.46082 | 12.14189 | 7754 ft | 165 kts | 124° |
| 2026-04-27 19:47 | 47.45348 | 12.15489 | 7753 ft | 165 kts | 124° |
| 2026-04-27 19:47 | 47.44620 | 12.16778 | 7753 ft | 163 kts | 124° |
| 2026-04-27 19:47 | 47.43903 | 12.18079 | 7747 ft | 161 kts | 117° |
| 2026-04-27 19:47 | 47.43603 | 12.19572 | 7745 ft | 151 kts | 87° |
| 2026-04-27 19:48 | 47.43521 | 12.21108 | 7745 ft | 150 kts | 84° |
| 2026-04-27 19:48 | 47.43450 | 12.22642 | 7748 ft | 150 kts | 84° |
| 2026-04-27 19:48 | 47.43386 | 12.24186 | 7753 ft | 151 kts | 84° |
| 2026-04-27 19:48 | 47.43340 | 12.25759 | 7753 ft | 154 kts | 84° |
| 2026-04-27 19:49 | 47.43300 | 12.27342 | 7747 ft | 153 kts | 84° |
| 2026-04-27 19:49 | 47.43257 | 12.28919 | 7758 ft | 154 kts | 85° |
| 2026-04-27 19:49 | 47.43230 | 12.30512 | 7733 ft | 152 kts | 84° |
| 2026-04-27 19:49 | 47.43177 | 12.32031 | 7758 ft | 147 kts | 84° |
| 2026-04-27 19:50 | 47.43117 | 12.33555 | 7758 ft | 150 kts | 84° |
| 2026-04-27 19:50 | 47.43074 | 12.35092 | 7756 ft | 152 kts | 84° |
| 2026-04-27 19:50 | 47.43045 | 12.36670 | 7757 ft | 156 kts | 84° |
| 2026-04-27 19:50 | 47.43026 | 12.38291 | 7752 ft | 159 kts | 84° |
| 2026-04-27 19:51 | 47.42993 | 12.39916 | 7747 ft | 157 kts | 84° |
| 2026-04-27 19:51 | 47.42940 | 12.41517 | 7744 ft | 155 kts | 84° |
| 2026-04-27 19:51 | 47.42885 | 12.43096 | 7746 ft | 153 kts | 84° |
| 2026-04-27 19:51 | 47.42834 | 12.44659 | 7745 ft | 151 kts | 84° |
| 2026-04-27 19:52 | 47.42787 | 12.46205 | 7735 ft | 148 kts | 85° |
| 2026-04-27 19:52 | 47.42754 | 12.47710 | 7756 ft | 149 kts | 84° |
| 2026-04-27 19:52 | 47.42731 | 12.49260 | 7759 ft | 153 kts | 84° |
| 2026-04-27 19:52 | 47.42708 | 12.50813 | 7744 ft | 152 kts | 84° |
| 2026-04-27 19:53 | 47.42196 | 12.53934 | 7735 ft | 160 kts | 103° |
| 2026-04-27 19:53 | 47.41799 | 12.55437 | 7736 ft | 153 kts | 104° |
| 2026-04-27 19:53 | 47.41419 | 12.56843 | 7746 ft | 142 kts | 104° |
| 2026-04-27 19:54 | 47.41066 | 12.58219 | 7752 ft | 149 kts | 104° |
| 2026-04-27 19:54 | 47.40689 | 12.59698 | 7650 ft | 156 kts | 105° |
| 2026-04-27 19:54 | 47.40321 | 12.61210 | 7515 ft | 157 kts | 104° |
| 2026-04-27 19:54 | 47.39959 | 12.62732 | 7392 ft | 158 kts | 104° |
| 2026-04-27 19:55 | 47.39587 | 12.64215 | 7262 ft | 154 kts | 104° |
| 2026-04-27 19:55 | 47.39205 | 12.65677 | 7134 ft | 151 kts | 104° |
| 2026-04-27 19:55 | 47.38830 | 12.67113 | 6998 ft | 146 kts | 105° |
| 2026-04-27 19:55 | 47.38483 | 12.68482 | 6879 ft | 141 kts | 104° |
| 2026-04-27 19:56 | 47.38148 | 12.69829 | 6759 ft | 141 kts | 104° |
| 2026-04-27 19:56 | 47.37813 | 12.71210 | 6638 ft | 145 kts | 104° |
| 2026-04-27 19:56 | 47.37476 | 12.72645 | 6464 ft | 150 kts | 103° |
| 2026-04-27 19:56 | 47.37100 | 12.74082 | 6263 ft | 149 kts | 104° |
| 2026-04-27 19:57 | 47.36721 | 12.75505 | 6080 ft | 151 kts | 104° |
| 2026-04-27 19:57 | 47.36331 | 12.76919 | 5839 ft | 142 kts | 105° |
| 2026-04-27 19:57 | 47.35994 | 12.78228 | 5595 ft | 135 kts | 105° |
| 2026-04-27 19:57 | 47.35644 | 12.79485 | 5330 ft | 133 kts | 119° |
| 2026-04-27 19:58 | 47.34953 | 12.80384 | 4960 ft | 135 kts | 152° |
| 2026-04-27 19:58 | 47.34053 | 12.80734 | 4580 ft | 134 kts | 178° |
| 2026-04-27 19:58 | 47.33139 | 12.80708 | 4264 ft | 128 kts | 188° |
| 2026-04-27 19:58 | 47.32262 | 12.80668 | 3947 ft | 127 kts | 178° |
| 2026-04-27 19:59 | 47.31434 | 12.80951 | 3690 ft | 117 kts | 165° |
| 2026-04-27 19:59 | 47.30672 | 12.81300 | 3346 ft | 113 kts | 165° |
| 2026-04-27 19:59 | 47.29963 | 12.81434 | 3047 ft | 95 kts | 189° |
| 2026-04-27 19:59 | 47.29471 | 12.81002 | 2863 ft | 79 kts | 258° |
| 2026-04-27 20:00 | 47.29349 | 12.80246 | 2657 ft | 73 kts | 268° |
| 2026-04-27 20:00 | 47.29235 | 12.79559 | 2489 ft | 61 kts | 263° |
| 2026-04-27 20:00 | 47.29164 | 12.79124 | 2476 ft | 10 kts | 255° |
| 2026-04-27 20:00 | 47.29161 | 12.79082 | 2477 ft | 2 kts | 294° |
| 2026-04-27 20:01 | 47.29188 | 12.79067 | 2477 ft | 4 kts | 343° |
| 2026-04-27 20:01 | 47.29223 | 12.79052 | 2476 ft | 1 kts | 342° |
| 2026-04-27 20:01 | 47.29234 | 12.79048 | 2470 ft | 1 kts | 356° |
| 2026-04-27 20:01 | 47.29253 | 12.79043 | 2470 ft | 0 kts | 342° |
| 2026-04-27 20:02 | 47.29254 | 12.79042 | 2470 ft | 0 kts | 345° |